ADDS METAR Data INFO
IDs: Format: Raw Decoded Include TAF

Data at: 0921 UTC 17 Oct 2017

KFOE 170853Z AUTO 20009KT 10SM CLR 12/05 A3018 RMK AO2 SLP216 T01170050 58008
KFOE 170753Z AUTO 19008KT 10SM CLR 12/06 A3020 RMK AO2 SLP223 T01170056
KFOE 170653Z AUTO 19008KT 10SM CLR 12/06 A3020 RMK AO2 SLP223 T01220056
KFOE 170553Z AUTO 19007KT 10SM CLR 12/06 A3021 RMK AO2 SLP225 T01170056 10167 20111 402280028 58010
KFOE 170453Z AUTO 19009KT 10SM CLR 12/06 A3022 RMK AO2 SLP232 T01170056
KFOE 170353Z AUTO 18008KT 10SM CLR 13/06 A3023 RMK AO2 SLP235 T01280056
KFOE 170253Z 17005KT 10SM CLR 12/06 A3024 RMK AO2 SLP239 T01220056 53005
KFOE 170153Z 18007KT 10SM CLR 14/05 A3023 RMK AO2 SLP237 T01440050
KFOE 170053Z 17007KT 10SM CLR 14/06 A3022 RMK AO2 SLP237 T01440056
KFOE 162353Z 18006KT 10SM CLR 17/05 A3022 RMK AO2 SLP236 T01670050 10228 20167 56012
KFOE 162253Z 19008KT 10SM CLR 21/04 A3023 RMK AO2 SLP235 T02060044
KFOE 162153Z 20012KT 10SM CLR 22/03 A3024 RMK AO2 SLP238 T02220033
KFOE 162053Z 19014G19KT 10SM CLR 22/04 A3026 RMK AO2 SLP245 T02220039 56032
KFOE 161953Z 23013G17KT 10SM CLR 22/04 A3028 RMK AO2 SLP251 T02220039
KFOE 161853Z 19008G17KT 10SM CLR 22/04 A3032 RMK AO2 SLP266 T02170044
KFOE 161753Z 18011G16KT 10SM CLR 21/05 A3036 RMK AO2 SLP279 T02060050 10206 20028 58015
KFOE 161653Z 22006KT 10SM CLR 18/07 A3038 RMK AO2 SLP287 T01830067
KFOE 161553Z 21007KT 10SM CLR 16/07 A3040 RMK AO2 SLP294 T01560067
KFOE 161453Z 21005KT 10SM CLR 12/06 A3040 RMK AO2 SLP297 T01170056 53004
KFOE 161353Z 18003KT 10SM CLR 08/05 A3040 RMK AO2 SLP298 T00830050
KFOE 161253Z 00000KT 10SM CLR 03/02 A3039 RMK AO2 SLP295 T00330022
KFOE 161153Z 00000KT 10SM CLR 03/02 A3039 RMK AO2 SLP295 T00330017 10056 20033 53006
KFOE 161053Z 00000KT 10SM CLR 04/03 A3039 RMK AO2 SLP291 T00390028
KFOE 160953Z AUTO 00000KT 10SM CLR 04/03 A3037 RMK AO2 SLP287 T00440028
KFOE 160853Z AUTO 00000KT 10SM CLR 06/03 A3037 RMK AO2 SLP285 T00560033 50001
KFOE 160753Z AUTO 00000KT 10SM CLR 05/03 A3038 RMK AO2 SLP289 T00500033
KFOE 160653Z AUTO 20003KT 10SM CLR 04/03 A3037 RMK AO2 SLP286 T00390028
KFOE 160553Z AUTO 20003KT 10SM CLR 06/04 A3037 RMK AO2 SLP285 T00560039 10117 20050 401780050 58002
KFOE 160453Z AUTO 00000KT 10SM CLR 07/04 A3037 RMK AO2 SLP287 T00670039
KFOE 160353Z AUTO 19004KT 10SM CLR 07/04 A3037 RMK AO2 SLP288 T00670039
KFOE 160253Z 00000KT 10SM CLR 07/05 A3038 RMK AO2 SLP289 T00670050 51008
KFOE 160153Z 00000KT 10SM CLR 08/03 A3037 RMK AO2 SLP286 T00830033
KFOE 160053Z 00000KT 10SM CLR 11/03 A3036 RMK AO2 SLP284 T01110028
KFOE 152353Z 32004KT 10SM CLR 11/03 A3035 RMK AO2 SLP280 T01060033 10178 20106 53001
KFOE 152253Z 33008KT 10SM CLR 16/02 A3035 RMK AO2 SLP276 T01560017
KFOE 152153Z 32010KT 10SM CLR 17/01 A3035 RMK AO2 SLP276 T01670011